aviador You're here:

CYWK Decoded Metar

WABUSH in NL, CANADA
Report Time2017-12-18 03:00:00
UTC Time2017-12-18 03:19:09
Flight Rules mvfr MVFR
Wind230° at 05 kt
W.Decomp.*RWY 18: 1.6 kt HW 4.7 kt RCW
W.Rank230° ranks 12
Current wind is below 230° avg. (8.1)
Visibility9999 m
Phenomena:N/A
Clouds:Overcast 018 Hf
Expected CloudBase > 1,200 ft AGL from Temp-Dew spread
Ceiling1,800 ft
Temp-24°C (ISA -35)
Dew Point-27°C (76% RH)
AAT-29.6°C
QNH1009 hPa
Density Alt-2,592 ft
Elevation1,808 ft
Report Wrong Elevation
Raw Report
CYWK 180300Z AUTO 23005KT 170V270 9SM OVC018 M24/M27 A2981 RMK
SLP159=

Extra information for CYWK:More info

Metar Taf Metar & Taf Last 4 Metars F.Rules Stats Wind Profile Meteogram Temp Stats Airport Information Weather charts Add Link Nearby VenuesMetar ALERT Operation Metar Decoded Social comments